sensor_id;sensor_type;location;lat;lon;timestamp;P1;durP1;ratioP1;P2;durP2;ratioP2
41466;SDS011;27205;53.690;19.948;2023-04-03T00:00:09;1.40;;;1.30;;
41466;SDS011;27205;53.690;19.948;2023-04-03T00:10:37;1.60;;;1.50;;
41466;SDS011;27205;53.690;19.948;2023-04-03T00:15:41;1.30;;;0.90;;
41466;SDS011;27205;53.690;19.948;2023-04-03T00:20:45;0.90;;;0.80;;
41466;SDS011;27205;53.690;19.948;2023-04-03T00:25:49;1.00;;;1.00;;
41466;SDS011;27205;53.690;19.948;2023-04-03T00:30:53;1.00;;;0.80;;
41466;SDS011;27205;53.690;19.948;2023-04-03T00:35:57;1.30;;;1.00;;
41466;SDS011;27205;53.690;19.948;2023-04-03T00:41:01;0.80;;;0.70;;
41466;SDS011;27205;53.690;19.948;2023-04-03T00:46:05;1.30;;;1.20;;
41466;SDS011;27205;53.690;19.948;2023-04-03T00:51:16;0.90;;;0.80;;
41466;SDS011;27205;53.690;19.948;2023-04-03T00:56:23;1.20;;;1.10;;
41466;SDS011;27205;53.690;19.948;2023-04-03T01:01:29;4.10;;;1.20;;
41466;SDS011;27205;53.690;19.948;2023-04-03T01:06:35;1.90;;;1.10;;
41466;SDS011;27205;53.690;19.948;2023-04-03T01:11:40;0.90;;;0.90;;
41466;SDS011;27205;53.690;19.948;2023-04-03T01:16:51;0.90;;;0.70;;
41466;SDS011;27205;53.690;19.948;2023-04-03T01:22:02;0.20;;;0.20;;
41466;SDS011;27205;53.690;19.948;2023-04-03T01:27:18;0.90;;;0.70;;
41466;SDS011;27205;53.690;19.948;2023-04-03T01:32:22;0.50;;;0.50;;
41466;SDS011;27205;53.690;19.948;2023-04-03T01:37:26;1.70;;;1.40;;
41466;SDS011;27205;53.690;19.948;2023-04-03T01:42:29;0.80;;;0.70;;
41466;SDS011;27205;53.690;19.948;2023-04-03T01:47:33;0.80;;;0.80;;
41466;SDS011;27205;53.690;19.948;2023-04-03T01:52:36;0.70;;;0.60;;
41466;SDS011;27205;53.690;19.948;2023-04-03T01:57:40;2.00;;;1.90;;
41466;SDS011;27205;53.690;19.948;2023-04-03T02:02:43;3.10;;;1.30;;
41466;SDS011;27205;53.690;19.948;2023-04-03T02:07:47;0.70;;;0.70;;
41466;SDS011;27205;53.690;19.948;2023-04-03T02:12:51;1.20;;;1.00;;
41466;SDS011;27205;53.690;19.948;2023-04-03T02:17:54;0.70;;;0.70;;
41466;SDS011;27205;53.690;19.948;2023-04-03T02:22:58;2.70;;;1.10;;
41466;SDS011;27205;53.690;19.948;2023-04-03T02:28:02;1.50;;;1.40;;
41466;SDS011;27205;53.690;19.948;2023-04-03T02:33:05;2.00;;;1.10;;
41466;SDS011;27205;53.690;19.948;2023-04-03T02:38:09;1.20;;;1.10;;
41466;SDS011;27205;53.690;19.948;2023-04-03T02:43:12;1.20;;;1.10;;
41466;SDS011;27205;53.690;19.948;2023-04-03T02:48:16;0.80;;;0.80;;
41466;SDS011;27205;53.690;19.948;2023-04-03T02:53:20;2.20;;;2.00;;
41466;SDS011;27205;53.690;19.948;2023-04-03T02:58:24;2.70;;;2.30;;
41466;SDS011;27205;53.690;19.948;2023-04-03T03:03:28;1.40;;;1.30;;
41466;SDS011;27205;53.690;19.948;2023-04-03T03:08:31;1.00;;;1.00;;
41466;SDS011;27205;53.690;19.948;2023-04-03T03:13:36;2.10;;;1.60;;
41466;SDS011;27205;53.690;19.948;2023-04-03T03:18:40;0.90;;;0.90;;
41466;SDS011;27205;53.690;19.948;2023-04-03T03:23:43;1.20;;;1.10;;
41466;SDS011;27205;53.690;19.948;2023-04-03T03:28:47;0.90;;;0.90;;
41466;SDS011;27205;53.690;19.948;2023-04-03T03:33:50;1.50;;;1.30;;
41466;SDS011;27205;53.690;19.948;2023-04-03T03:38:54;2.10;;;1.30;;
41466;SDS011;27205;53.690;19.948;2023-04-03T03:43:58;1.20;;;0.90;;
41466;SDS011;27205;53.690;19.948;2023-04-03T03:49:01;1.30;;;0.80;;
41466;SDS011;27205;53.690;19.948;2023-04-03T03:54:05;1.30;;;1.00;;
41466;SDS011;27205;53.690;19.948;2023-04-03T03:59:11;1.00;;;0.80;;
41466;SDS011;27205;53.690;19.948;2023-04-03T04:04:15;1.60;;;1.30;;
41466;SDS011;27205;53.690;19.948;2023-04-03T04:09:19;0.80;;;0.80;;
41466;SDS011;27205;53.690;19.948;2023-04-03T04:14:23;0.80;;;0.70;;
41466;SDS011;27205;53.690;19.948;2023-04-03T04:19:26;0.70;;;0.60;;
41466;SDS011;27205;53.690;19.948;2023-04-03T04:24:30;1.80;;;1.10;;
41466;SDS011;27205;53.690;19.948;2023-04-03T04:29:33;1.30;;;0.90;;
41466;SDS011;27205;53.690;19.948;2023-04-03T04:34:38;1.20;;;1.00;;
41466;SDS011;27205;53.690;19.948;2023-04-03T04:39:42;2.40;;;1.50;;
41466;SDS011;27205;53.690;19.948;2023-04-03T04:44:46;2.80;;;1.80;;
41466;SDS011;27205;53.690;19.948;2023-04-03T04:49:49;1.20;;;1.10;;
41466;SDS011;27205;53.690;19.948;2023-04-03T04:54:53;1.10;;;1.00;;
41466;SDS011;27205;53.690;19.948;2023-04-03T04:59:57;1.40;;;1.30;;
41466;SDS011;27205;53.690;19.948;2023-04-03T05:05:00;2.20;;;1.90;;
41466;SDS011;27205;53.690;19.948;2023-04-03T05:10:07;1.00;;;1.00;;
41466;SDS011;27205;53.690;19.948;2023-04-03T05:15:11;0.80;;;0.80;;
41466;SDS011;27205;53.690;19.948;2023-04-03T05:20:15;1.40;;;1.30;;
41466;SDS011;27205;53.690;19.948;2023-04-03T05:25:18;4.10;;;2.00;;
41466;SDS011;27205;53.690;19.948;2023-04-03T05:30:22;2.80;;;2.60;;
41466;SDS011;27205;53.690;19.948;2023-04-03T05:35:26;1.50;;;1.40;;
41466;SDS011;27205;53.690;19.948;2023-04-03T05:40:29;3.30;;;2.80;;
41466;SDS011;27205;53.690;19.948;2023-04-03T05:45:33;1.10;;;1.00;;
41466;SDS011;27205;53.690;19.948;2023-04-03T05:50:36;2.10;;;1.20;;
41466;SDS011;27205;53.690;19.948;2023-04-03T05:55:44;1.80;;;1.30;;
41466;SDS011;27205;53.690;19.948;2023-04-03T06:00:48;1.40;;;1.30;;
41466;SDS011;27205;53.690;19.948;2023-04-03T06:05:51;1.90;;;1.00;;
41466;SDS011;27205;53.690;19.948;2023-04-03T06:10:55;1.50;;;1.10;;
41466;SDS011;27205;53.690;19.948;2023-04-03T06:15:59;3.10;;;1.10;;
41466;SDS011;27205;53.690;19.948;2023-04-03T06:21:02;1.40;;;0.70;;
41466;SDS011;27205;53.690;19.948;2023-04-03T06:26:07;1.70;;;1.10;;
41466;SDS011;27205;53.690;19.948;2023-04-03T06:31:11;1.20;;;0.90;;
41466;SDS011;27205;53.690;19.948;2023-04-03T06:36:15;2.10;;;1.40;;
41466;SDS011;27205;53.690;19.948;2023-04-03T06:41:22;2.70;;;1.00;;
41466;SDS011;27205;53.690;19.948;2023-04-03T06:46:26;1.50;;;1.10;;
41466;SDS011;27205;53.690;19.948;2023-04-03T06:56:33;2.00;;;1.60;;
41466;SDS011;27205;53.690;19.948;2023-04-03T07:01:37;0.80;;;0.80;;
41466;SDS011;27205;53.690;19.948;2023-04-03T07:06:41;1.20;;;1.10;;
41466;SDS011;27205;53.690;19.948;2023-04-03T07:11:45;1.20;;;1.10;;
41466;SDS011;27205;53.690;19.948;2023-04-03T07:16:49;2.60;;;0.90;;
41466;SDS011;27205;53.690;19.948;2023-04-03T07:21:52;1.40;;;1.30;;
41466;SDS011;27205;53.690;19.948;2023-04-03T07:26:56;2.30;;;1.00;;
41466;SDS011;27205;53.690;19.948;2023-04-03T07:31:59;0.80;;;0.70;;
41466;SDS011;27205;53.690;19.948;2023-04-03T07:37:03;0.70;;;0.70;;
41466;SDS011;27205;53.690;19.948;2023-04-03T07:42:07;1.20;;;1.10;;
41466;SDS011;27205;53.690;19.948;2023-04-03T07:47:11;1.70;;;1.40;;
41466;SDS011;27205;53.690;19.948;2023-04-03T07:52:14;1.20;;;1.10;;
41466;SDS011;27205;53.690;19.948;2023-04-03T07:57:18;1.80;;;1.40;;
41466;SDS011;27205;53.690;19.948;2023-04-03T08:02:22;1.20;;;1.10;;
41466;SDS011;27205;53.690;19.948;2023-04-03T08:07:26;3.00;;;2.20;;
41466;SDS011;27205;53.690;19.948;2023-04-03T08:12:30;4.80;;;1.50;;
41466;SDS011;27205;53.690;19.948;2023-04-03T08:17:34;1.50;;;1.20;;
41466;SDS011;27205;53.690;19.948;2023-04-03T08:22:38;1.30;;;1.10;;
41466;SDS011;27205;53.690;19.948;2023-04-03T08:27:42;1.20;;;1.00;;
41466;SDS011;27205;53.690;19.948;2023-04-03T08:32:46;2.50;;;1.10;;
41466;SDS011;27205;53.690;19.948;2023-04-03T08:37:49;0.80;;;0.80;;
41466;SDS011;27205;53.690;19.948;2023-04-03T08:43:00;1.30;;;1.20;;
41466;SDS011;27205;53.690;19.948;2023-04-03T08:48:12;2.00;;;1.20;;
41466;SDS011;27205;53.690;19.948;2023-04-03T08:53:20;0.80;;;0.80;;
41466;SDS011;27205;53.690;19.948;2023-04-03T08:58:29;1.10;;;1.00;;
41466;SDS011;27205;53.690;19.948;2023-04-03T09:03:38;1.20;;;1.10;;
41466;SDS011;27205;53.690;19.948;2023-04-03T09:08:49;1.00;;;1.00;;
41466;SDS011;27205;53.690;19.948;2023-04-03T09:25:17;1.40;;;0.70;;
41466;SDS011;27205;53.690;19.948;2023-04-03T09:30:35;1.00;;;0.60;;
41466;SDS011;27205;53.690;19.948;2023-04-03T09:35:41;1.50;;;1.40;;
41466;SDS011;27205;53.690;19.948;2023-04-03T09:41:02;4.20;;;3.90;;
41466;SDS011;27205;53.690;19.948;2023-04-03T09:51:37;1.30;;;1.00;;
41466;SDS011;27205;53.690;19.948;2023-04-03T09:56:41;1.20;;;1.10;;
41466;SDS011;27205;53.690;19.948;2023-04-03T10:02:00;1.40;;;1.00;;
41466;SDS011;27205;53.690;19.948;2023-04-03T10:12:40;1.00;;;0.90;;
41466;SDS011;27205;53.690;19.948;2023-04-03T10:17:49;0.90;;;0.90;;
41466;SDS011;27205;53.690;19.948;2023-04-03T10:28:39;2.10;;;1.50;;
41466;SDS011;27205;53.690;19.948;2023-04-03T10:34:05;1.20;;;0.80;;
41466;SDS011;27205;53.690;19.948;2023-04-03T10:44:47;1.00;;;0.70;;
41466;SDS011;27205;53.690;19.948;2023-04-03T10:49:59;0.50;;;0.50;;
41466;SDS011;27205;53.690;19.948;2023-04-03T11:00:20;1.50;;;0.80;;
41466;SDS011;27205;53.690;19.948;2023-04-03T11:05:49;11.80;;;2.30;;
41466;SDS011;27205;53.690;19.948;2023-04-03T11:11:00;1.20;;;1.10;;
41466;SDS011;27205;53.690;19.948;2023-04-03T11:16:07;2.10;;;1.00;;
41466;SDS011;27205;53.690;19.948;2023-04-03T11:21:12;1.00;;;0.90;;
41466;SDS011;27205;53.690;19.948;2023-04-03T11:26:23;1.10;;;1.10;;
41466;SDS011;27205;53.690;19.948;2023-04-03T11:31:38;0.60;;;0.60;;
41466;SDS011;27205;53.690;19.948;2023-04-03T11:36:49;0.90;;;0.90;;
41466;SDS011;27205;53.690;19.948;2023-04-03T11:58:19;0.80;;;0.50;;
41466;SDS011;27205;53.690;19.948;2023-04-03T12:03:35;5.40;;;1.10;;
41466;SDS011;27205;53.690;19.948;2023-04-03T12:09:00;0.70;;;0.70;;
41466;SDS011;27205;53.690;19.948;2023-04-03T12:14:04;1.00;;;0.90;;
41466;SDS011;27205;53.690;19.948;2023-04-03T12:19:38;1.40;;;0.90;;
41466;SDS011;27205;53.690;19.948;2023-04-03T12:24:49;1.70;;;0.60;;
41466;SDS011;27205;53.690;19.948;2023-04-03T12:29:59;1.10;;;1.00;;
41466;SDS011;27205;53.690;19.948;2023-04-03T12:35:10;0.40;;;0.40;;
41466;SDS011;27205;53.690;19.948;2023-04-03T12:40:34;0.60;;;0.60;;
41466;SDS011;27205;53.690;19.948;2023-04-03T12:46:19;0.70;;;0.50;;
41466;SDS011;27205;53.690;19.948;2023-04-03T12:56:40;0.60;;;0.50;;
41466;SDS011;27205;53.690;19.948;2023-04-03T13:01:44;0.90;;;0.90;;
41466;SDS011;27205;53.690;19.948;2023-04-03T13:07:00;1.30;;;1.20;;
41466;SDS011;27205;53.690;19.948;2023-04-03T13:12:10;0.60;;;0.60;;
41466;SDS011;27205;53.690;19.948;2023-04-03T13:17:16;0.90;;;0.70;;
41466;SDS011;27205;53.690;19.948;2023-04-03T13:27:32;0.60;;;0.60;;
41466;SDS011;27205;53.690;19.948;2023-04-03T13:32:36;0.80;;;0.60;;
41466;SDS011;27205;53.690;19.948;2023-04-03T13:37:40;0.90;;;0.90;;
41466;SDS011;27205;53.690;19.948;2023-04-03T13:42:59;1.40;;;1.30;;
41466;SDS011;27205;53.690;19.948;2023-04-03T13:48:09;1.20;;;1.00;;
41466;SDS011;27205;53.690;19.948;2023-04-03T13:53:23;1.30;;;1.20;;
41466;SDS011;27205;53.690;19.948;2023-04-03T13:58:31;1.60;;;1.50;;
41466;SDS011;27205;53.690;19.948;2023-04-03T14:09:18;1.60;;;1.50;;
41466;SDS011;27205;53.690;19.948;2023-04-03T14:14:26;0.60;;;0.50;;
41466;SDS011;27205;53.690;19.948;2023-04-03T14:19:33;1.40;;;1.20;;
41466;SDS011;27205;53.690;19.948;2023-04-03T14:24:38;1.60;;;1.50;;
41466;SDS011;27205;53.690;19.948;2023-04-03T14:29:42;1.80;;;1.60;;
41466;SDS011;27205;53.690;19.948;2023-04-03T14:34:46;0.40;;;0.40;;
41466;SDS011;27205;53.690;19.948;2023-04-03T14:39:51;1.80;;;1.70;;
41466;SDS011;27205;53.690;19.948;2023-04-03T14:44:59;1.50;;;1.40;;
41466;SDS011;27205;53.690;19.948;2023-04-03T14:50:04;1.40;;;1.30;;
41466;SDS011;27205;53.690;19.948;2023-04-03T14:55:18;1.30;;;1.20;;
41466;SDS011;27205;53.690;19.948;2023-04-03T15:00:23;1.50;;;1.40;;
41466;SDS011;27205;53.690;19.948;2023-04-03T15:05:26;1.30;;;1.20;;
41466;SDS011;27205;53.690;19.948;2023-04-03T15:10:30;1.30;;;1.20;;
41466;SDS011;27205;53.690;19.948;2023-04-03T15:15:34;1.80;;;1.60;;
41466;SDS011;27205;53.690;19.948;2023-04-03T15:20:40;2.10;;;2.00;;
41466;SDS011;27205;53.690;19.948;2023-04-03T15:25:44;1.80;;;1.70;;
41466;SDS011;27205;53.690;19.948;2023-04-03T15:30:50;1.90;;;1.80;;
41466;SDS011;27205;53.690;19.948;2023-04-03T15:35:54;1.90;;;1.70;;
41466;SDS011;27205;53.690;19.948;2023-04-03T15:41:09;2.10;;;2.00;;
41466;SDS011;27205;53.690;19.948;2023-04-03T15:46:13;1.70;;;1.60;;
41466;SDS011;27205;53.690;19.948;2023-04-03T15:51:16;1.50;;;1.40;;
41466;SDS011;27205;53.690;19.948;2023-04-03T15:56:20;3.80;;;3.60;;
41466;SDS011;27205;53.690;19.948;2023-04-03T16:01:23;1.70;;;1.60;;
41466;SDS011;27205;53.690;19.948;2023-04-03T16:06:27;1.80;;;1.70;;
41466;SDS011;27205;53.690;19.948;2023-04-03T16:23:16;2.70;;;2.50;;
41466;SDS011;27205;53.690;19.948;2023-04-03T16:28:20;1.70;;;1.60;;
41466;SDS011;27205;53.690;19.948;2023-04-03T16:33:23;3.10;;;2.90;;
41466;SDS011;27205;53.690;19.948;2023-04-03T16:38:27;3.00;;;2.80;;
41466;SDS011;27205;53.690;19.948;2023-04-03T16:43:31;2.80;;;2.60;;
41466;SDS011;27205;53.690;19.948;2023-04-03T16:48:35;3.90;;;3.60;;
41466;SDS011;27205;53.690;19.948;2023-04-03T16:53:38;2.80;;;2.60;;
41466;SDS011;27205;53.690;19.948;2023-04-03T16:58:42;4.10;;;3.70;;
41466;SDS011;27205;53.690;19.948;2023-04-03T17:03:45;3.10;;;2.90;;
41466;SDS011;27205;53.690;19.948;2023-04-03T17:08:49;2.20;;;2.00;;
41466;SDS011;27205;53.690;19.948;2023-04-03T17:13:55;2.90;;;2.70;;
41466;SDS011;27205;53.690;19.948;2023-04-03T17:18:58;1.60;;;1.50;;
41466;SDS011;27205;53.690;19.948;2023-04-03T17:29:11;2.30;;;2.20;;
41466;SDS011;27205;53.690;19.948;2023-04-03T17:34:14;2.00;;;1.90;;
41466;SDS011;27205;53.690;19.948;2023-04-03T17:39:18;3.20;;;2.90;;
41466;SDS011;27205;53.690;19.948;2023-04-03T17:44:21;4.20;;;3.90;;
41466;SDS011;27205;53.690;19.948;2023-04-03T17:49:25;8.20;;;7.60;;
41466;SDS011;27205;53.690;19.948;2023-04-03T17:54:28;1.70;;;1.60;;
41466;SDS011;27205;53.690;19.948;2023-04-03T17:59:32;2.60;;;2.50;;
41466;SDS011;27205;53.690;19.948;2023-04-03T18:04:36;5.80;;;5.40;;
41466;SDS011;27205;53.690;19.948;2023-04-03T18:09:39;4.30;;;4.00;;
41466;SDS011;27205;53.690;19.948;2023-04-03T18:14:44;10.40;;;9.70;;
41466;SDS011;27205;53.690;19.948;2023-04-03T18:19:48;5.10;;;4.80;;
41466;SDS011;27205;53.690;19.948;2023-04-03T18:24:54;4.80;;;4.40;;
41466;SDS011;27205;53.690;19.948;2023-04-03T18:30:00;4.30;;;4.00;;
41466;SDS011;27205;53.690;19.948;2023-04-03T18:35:09;3.40;;;2.70;;
41466;SDS011;27205;53.690;19.948;2023-04-03T18:40:13;2.60;;;2.50;;
41466;SDS011;27205;53.690;19.948;2023-04-03T18:45:21;3.10;;;2.80;;
41466;SDS011;27205;53.690;19.948;2023-04-03T18:50:25;2.80;;;2.60;;
41466;SDS011;27205;53.690;19.948;2023-04-03T18:55:29;4.10;;;3.80;;
41466;SDS011;27205;53.690;19.948;2023-04-03T19:00:33;4.30;;;4.00;;
41466;SDS011;27205;53.690;19.948;2023-04-03T19:05:37;3.20;;;2.90;;
41466;SDS011;27205;53.690;19.948;2023-04-03T19:10:41;3.60;;;3.40;;
41466;SDS011;27205;53.690;19.948;2023-04-03T19:15:44;2.50;;;2.40;;
41466;SDS011;27205;53.690;19.948;2023-04-03T19:20:49;3.10;;;2.40;;
41466;SDS011;27205;53.690;19.948;2023-04-03T19:26:06;1.20;;;1.10;;
41466;SDS011;27205;53.690;19.948;2023-04-03T19:31:14;2.30;;;2.10;;
41466;SDS011;27205;53.690;19.948;2023-04-03T19:36:23;2.10;;;2.00;;
41466;SDS011;27205;53.690;19.948;2023-04-03T19:41:27;1.50;;;1.40;;
41466;SDS011;27205;53.690;19.948;2023-04-03T19:46:33;2.10;;;1.80;;
41466;SDS011;27205;53.690;19.948;2023-04-03T19:51:37;2.30;;;2.10;;
41466;SDS011;27205;53.690;19.948;2023-04-03T19:56:41;2.10;;;2.00;;
41466;SDS011;27205;53.690;19.948;2023-04-03T20:01:45;1.30;;;0.90;;
41466;SDS011;27205;53.690;19.948;2023-04-03T20:06:48;2.10;;;0.90;;
41466;SDS011;27205;53.690;19.948;2023-04-03T20:11:52;1.80;;;1.70;;
41466;SDS011;27205;53.690;19.948;2023-04-03T20:16:56;2.70;;;1.90;;
41466;SDS011;27205;53.690;19.948;2023-04-03T20:22:00;2.60;;;1.60;;
41466;SDS011;27205;53.690;19.948;2023-04-03T20:27:03;2.70;;;2.40;;
41466;SDS011;27205;53.690;19.948;2023-04-03T20:32:07;3.60;;;3.30;;
41466;SDS011;27205;53.690;19.948;2023-04-03T20:37:12;4.00;;;3.70;;
41466;SDS011;27205;53.690;19.948;2023-04-03T20:42:24;4.20;;;3.80;;
41466;SDS011;27205;53.690;19.948;2023-04-03T20:47:28;2.50;;;2.30;;
41466;SDS011;27205;53.690;19.948;2023-04-03T20:52:31;3.20;;;2.90;;
41466;SDS011;27205;53.690;19.948;2023-04-03T20:57:37;2.50;;;2.30;;
41466;SDS011;27205;53.690;19.948;2023-04-03T21:02:41;2.10;;;1.90;;
41466;SDS011;27205;53.690;19.948;2023-04-03T21:23:53;1.40;;;0.80;;
41466;SDS011;27205;53.690;19.948;2023-04-03T21:28:58;2.60;;;1.60;;
41466;SDS011;27205;53.690;19.948;2023-04-03T21:34:01;1.50;;;1.40;;
41466;SDS011;27205;53.690;19.948;2023-04-03T21:39:04;3.20;;;2.40;;
41466;SDS011;27205;53.690;19.948;2023-04-03T21:44:08;2.10;;;1.90;;
41466;SDS011;27205;53.690;19.948;2023-04-03T21:49:12;1.70;;;1.60;;
41466;SDS011;27205;53.690;19.948;2023-04-03T21:54:16;1.40;;;1.30;;
41466;SDS011;27205;53.690;19.948;2023-04-03T21:59:20;2.70;;;1.70;;
41466;SDS011;27205;53.690;19.948;2023-04-03T22:04:24;1.50;;;1.40;;
41466;SDS011;27205;53.690;19.948;2023-04-03T22:09:28;3.30;;;1.90;;
41466;SDS011;27205;53.690;19.948;2023-04-03T22:14:32;2.90;;;2.00;;
41466;SDS011;27205;53.690;19.948;2023-04-03T22:19:35;1.70;;;1.50;;
41466;SDS011;27205;53.690;19.948;2023-04-03T22:24:39;1.10;;;1.00;;
41466;SDS011;27205;53.690;19.948;2023-04-03T22:29:43;2.60;;;1.40;;
41466;SDS011;27205;53.690;19.948;2023-04-03T22:34:46;3.10;;;1.70;;
41466;SDS011;27205;53.690;19.948;2023-04-03T22:39:50;2.00;;;1.40;;
41466;SDS011;27205;53.690;19.948;2023-04-03T22:44:55;1.80;;;1.60;;
41466;SDS011;27205;53.690;19.948;2023-04-03T22:50:00;2.40;;;1.80;;
41466;SDS011;27205;53.690;19.948;2023-04-03T22:55:03;1.30;;;1.10;;
41466;SDS011;27205;53.690;19.948;2023-04-03T23:00:20;1.60;;;1.30;;
41466;SDS011;27205;53.690;19.948;2023-04-03T23:05:24;1.30;;;1.20;;
41466;SDS011;27205;53.690;19.948;2023-04-03T23:10:28;3.30;;;1.60;;
41466;SDS011;27205;53.690;19.948;2023-04-03T23:15:31;2.70;;;2.00;;
41466;SDS011;27205;53.690;19.948;2023-04-03T23:20:35;1.70;;;1.50;;
41466;SDS011;27205;53.690;19.948;2023-04-03T23:25:39;2.90;;;1.70;;
41466;SDS011;27205;53.690;19.948;2023-04-03T23:30:42;2.40;;;1.50;;
41466;SDS011;27205;53.690;19.948;2023-04-03T23:35:47;1.30;;;1.20;;
41466;SDS011;27205;53.690;19.948;2023-04-03T23:40:51;3.30;;;1.70;;
41466;SDS011;27205;53.690;19.948;2023-04-03T23:45:54;2.20;;;1.40;;
41466;SDS011;27205;53.690;19.948;2023-04-03T23:50:58;2.00;;;1.40;;
41466;SDS011;27205;53.690;19.948;2023-04-03T23:56:02;2.40;;;1.30;;
